Latest Weather Observations for Portland Airport

IDV60801

Issued at 8:42 pm EDT Thursday 21 February 2019 (issued every 10 minutes, with the page automatically refreshed every 10 minutes)

About weather observations | Map of weather stations | Latest weather observations for VIC | Other Formats
Station Details ID: 090171 Name: CASHMORE AIRPORT Lat: -38.31 Lon: 141.47 Height: 80.9 m
Data from the previous 72 hours. | See also: Recent months at Portland Airport
Date/Time
EDT
Temp
°C
App
Temp
°C
Dew
Point
°C
Rel
Hum
%
Delta-T
°C
Wind Press
QNH
hPa
Press
MSL
hPa
Rain since
9am
mm
Dir  Spd
km/h
Gust
km/h
Spd
kts
Gust
kts
21/08:30pm 15.5 13.5 8.7 64 3.5 SSE 9 13 5 7 1023.1 1023.0 0.0
21/08:00pm 15.6 12.8 8.6 63 3.6 SE 13 20 7 11 1022.7 1022.6 0.0
21/07:30pm 16.0 13.2 8.7 62 3.7 SSE 13 20 7 11 1022.7 1022.6 0.0
21/07:00pm 16.6 14.2 8.6 59 4.1 S 11 17 6 9 1022.6 1022.5 0.0
21/06:30pm 16.7 14.9 9.4 62 3.8 SSW 9 17 5 9 1022.5 1022.4 0.0
21/06:00pm 16.7 14.0 9.1 61 3.9 S 13 22 7 12 1022.4 1022.3 0.0
21/05:30pm 16.9 14.8 9.8 63 3.7 S 11 19 6 10 1022.0 1021.9 0.0
21/05:00pm 17.0 14.5 9.7 62 3.8 S 13 22 7 12 1022.2 1022.1 0.0
21/04:30pm 17.3 15.0 9.0 58 4.3 SSW 11 19 6 10 1022.4 1022.3 0.0
21/04:00pm 17.5 14.9 9.4 59 4.2 SSW 13 24 7 13 1022.5 1022.4 0.0
21/03:30pm 17.3 14.5 8.4 56 4.6 S 13 20 7 11 1022.7 1022.6 0.0
21/03:00pm 17.4 14.4 9.1 58 4.3 S 15 22 8 12 1022.9 1022.8 0.0
21/02:30pm 17.7 14.9 8.6 55 4.7 SSW 13 19 7 10 1022.8 1022.7 0.0
21/02:00pm 18.4 16.2 9.5 56 4.7 S 11 17 6 9 1022.9 1022.8 0.0
21/01:30pm 17.2 14.0 8.4 56 4.5 SSW 15 20 8 11 1023.0 1022.9 0.0
21/01:00pm 17.0 14.1 8.2 56 4.5 S 13 20 7 11 1023.0 1022.9 0.0
21/12:30pm 16.8 13.9 8.2 57 4.4 SSW 13 22 7 12 1022.9 1022.8 0.0
21/12:00pm 16.7 14.2 8.4 58 4.2 S 11 19 6 10 1022.8 1022.7 0.0
21/11:30am 16.6 13.7 8.1 57 4.3 SSW 13 19 7 10 1022.6 1022.5 0.0
21/11:00am 16.3 13.3 7.8 57 4.3 SSW 13 17 7 9 1022.5 1022.4 0.0
21/10:30am 15.9 13.0 8.2 60 3.9 SW 13 20 7 11 1022.4 1022.3 0.0
21/10:00am 15.6 12.6 7.9 60 3.9 SW 13 20 7 11 1022.1 1022.0 0.0
21/09:30am 15.6 12.8 8.4 62 3.7 SW 13 20 7 11 1021.8 1021.7 0.0
21/09:00am 15.9 13.6 8.9 63 3.6 SW 11 20 6 11 1021.3 1021.2 0.2
21/08:30am 15.1 12.9 9.5 69 2.9 SW 11 19 6 10 1020.9 1020.8 0.2
21/08:00am 14.2 12.8 9.6 74 2.4 SW 7 15 4 8 1020.4 1020.3 0.2
21/07:30am 12.7 10.9 8.0 73 2.3 SW 7 11 4 6 1020.0 1019.8 0.2
21/07:00am 14.2 12.4 9.4 73 2.5 SW 9 11 5 6 1019.6 1019.4 0.2
21/06:30am 13.9 12.2 9.7 76 2.2 SW 9 13 5 7 1019.4 1019.2 0.2
21/06:00am 12.8 11.3 9.3 79 1.8 WSW 7 9 4 5 1019.0 1018.8 0.2
21/05:30am 12.2 10.8 8.7 79 1.7 WSW 6 9 3 5 1018.8 1018.6 0.2
21/05:00am 11.7 9.6 8.2 79 1.7 WSW 9 11 5 6 1018.7 1018.5 0.2
21/04:30am 10.1 7.5 6.1 76 1.9 SW 9 9 5 5 1018.7 1018.5 0.2
21/04:00am 11.5 9.1 6.8 73 2.2 SW 9 11 5 6 1018.6 1018.4 0.2
21/03:30am 12.2 9.5 7.3 72 2.4 SW 11 15 6 8 1018.5 1018.3 0.2
21/03:00am 13.2 10.8 8.5 73 2.3 SW 11 17 6 9 1018.7 1018.5 0.2
21/02:30am 13.3 11.0 9.0 75 2.2 WSW 11 15 6 8 1018.7 1018.5 0.2
21/02:00am 13.7 11.6 9.7 77 2.1 SW 11 15 6 8 1018.9 1018.7 0.2
21/01:30am 11.4 9.7 7.7 78 1.8 W 6 7 3 4 1018.9 1018.7 0.2
21/01:00am 10.2 8.0 6.4 77 1.8 W 7 9 4 5 1019.0 1018.8 0.2
21/12:30am 9.9 7.7 5.5 74 2.0 W 6 7 3 4 1019.0 1018.8 0.2
21/12:00am 10.4 8.1 5.8 73 2.1 WSW 7 9 4 5 1019.1 1018.9 0.2
 
Date/Time
EDT
Temp
°C
App
Temp
°C
Dew
Point
°C
Rel
Hum
%
Delta-T
°C
Wind Press
QNH
hPa
Press
MSL
hPa
Rain since
9am
mm
Dir  Spd
km/h
Gust
km/h
Spd
kts
Gust
kts
20/11:30pm 11.6 9.1 6.5 71 2.4 SW 9 13 5 7 1019.2 1019.0 0.2
20/11:00pm 13.0 10.7 7.5 69 2.7 SW 9 15 5 8 1019.1 1018.9 0.2
20/10:30pm 14.2 11.8 8.6 69 2.8 SW 11 19 6 10 1018.9 1018.7 0.2
20/10:00pm 14.8 11.7 9.0 68 3.0 WSW 15 20 8 11 1018.6 1018.4 0.2
20/09:30pm 14.5 11.1 9.3 71 2.7 WSW 17 22 9 12 1018.3 1018.1 0.2
20/09:00pm 14.8 12.3 9.8 72 2.6 WSW 13 20 7 11 1018.0 1017.8 0.2
20/08:30pm 15.2 11.6 10.0 71 2.7 SW 19 24 10 13 1017.9 1017.7 0.2
20/08:00pm 15.5 12.0 10.3 71 2.7 WSW 19 26 10 14 1017.6 1017.4 0.2
20/07:30pm 16.2 13.4 11.2 72 2.7 WSW 17 26 9 14 1017.4 1017.2 0.2
20/07:00pm 16.4 12.9 10.9 70 2.9 WSW 20 28 11 15 1017.2 1017.0 0.2
20/06:30pm 17.3 13.5 11.3 68 3.3 WSW 22 30 12 16 1016.9 1016.7 0.2
20/06:00pm 16.6 12.4 11.1 70 3.0 WSW 24 35 13 19 1016.7 1016.5 0.2
20/05:30pm 17.6 12.7 11.4 67 3.4 WSW 28 33 15 18 1016.4 1016.2 0.2
20/05:00pm 17.9 12.8 11.9 68 3.3 WSW 30 41 16 22 1016.3 1016.1 0.2
20/04:30pm 17.3 11.4 11.1 67 3.4 WSW 33 46 18 25 1016.2 1016.0 0.2
20/04:00pm 18.8 13.5 11.1 61 4.2 W 30 39 16 21 1016.3 1016.1 0.2
20/03:30pm 18.2 13.0 11.5 65 3.7 W 30 37 16 20 1016.3 1016.1 0.2
20/03:00pm 18.3 12.7 11.4 64 3.8 WSW 32 43 17 23 1016.4 1016.2 0.2
20/02:30pm 19.5 14.4 12.0 62 4.2 W 30 43 16 23 1016.3 1016.1 0.2
20/02:00pm 18.9 14.1 11.5 62 4.1 W 28 37 15 20 1016.2 1016.0 0.2
20/01:30pm 18.6 13.8 11.7 64 3.8 W 28 43 15 23 1016.3 1016.1 0.2
20/01:00pm 18.5 14.8 12.7 69 3.3 W 24 33 13 18 1016.4 1016.2 0.2
20/12:43pm 18.5 14.9 12.9 70 3.2 W 24 32 13 17 1016.5 1016.3 0.2
20/12:30pm 18.1 14.0 13.8 76 2.5 WNW 28 35 15 19 1016.5 1016.3 0.2
20/12:26pm 17.8 14.4 13.7 77 2.3 W 24 35 13 19 1016.5 1016.3 0.2
20/12:15pm 16.0 11.5 12.6 80 1.9 W 28 39 15 21 1016.6 1016.4 0.2
20/12:09pm 16.2 11.1 12.0 76 2.3 W 30 39 16 21 1016.7 1016.5 0.2
20/12:00pm 17.5 13.4 12.6 73 2.7 W 26 35 14 19 1016.6 1016.4 0.2
20/11:42am 17.7 14.0 12.8 73 2.7 W 24 41 13 22 1016.5 1016.3 0.2
20/11:30am 16.3 11.5 11.7 74 2.5 W 28 39 15 21 1016.6 1016.4 0.2
20/11:29am 16.2 10.9 11.4 73 2.6 W 30 39 16 21 1016.6 1016.4 0.2
20/11:00am 18.5 14.1 11.8 65 3.7 WSW 26 37 14 20 1016.4 1016.2 0.2
20/10:30am 17.8 13.5 12.0 69 3.2 W 26 35 14 19 1016.1 1015.9 0.2
20/10:00am 16.8 12.8 13.1 79 2.1 WSW 26 35 14 19 1015.9 1015.7 0.2
20/09:31am 15.7 12.6 13.4 86 1.3 W 22 32 12 17 1015.8 1015.6 0.2
20/09:30am 15.4 12.2 13.1 86 1.3 W 22 32 12 17 1015.8 1015.6 0.2
20/09:29am 15.4 11.8 13.1 86 1.3 W 24 32 13 17 1015.8 1015.6 0.2
20/09:17am 14.8 11.0 12.3 85 1.4 W 24 33 13 18 1015.8 1015.6 0.2
20/09:11am 15.0 11.2 12.3 84 1.5 W 24 33 13 18 1015.8 1015.6 0.0
20/09:00am 15.5 11.8 12.8 84 1.5 W 24 33 13 18 1015.6 1015.4 0.0
20/08:55am 15.0 12.0 12.5 85 1.4 W 20 28 11 15 1015.6 1015.4 0.0
20/08:51am 14.9 11.9 12.4 85 1.4 W 20 28 11 15 1015.6 1015.4 0.0
20/08:35am 14.5 9.3 11.5 82 1.6 W 30 44 16 24 1015.5 1015.3 0.0
20/08:30am 14.9 9.4 11.7 81 1.7 W 32 43 17 23 1015.4 1015.2 0.0
20/08:29am 15.0 9.5 11.8 81 1.7 W 32 43 17 23 1015.4 1015.2 0.0
20/08:00am 15.1 12.0 11.5 79 1.9 W 19 28 10 15 1015.0 1014.8 0.0
20/07:30am 15.7 11.6 10.0 69 3.0 W 22 39 12 21 1014.8 1014.6 0.0
20/07:00am 15.4 11.8 9.7 69 3.0 W 19 26 10 14 1014.5 1014.3 0.0
20/06:30am 14.7 11.6 10.3 75 2.3 WNW 17 22 9 12 1014.3 1014.1 0.0
20/06:00am 14.8 11.3 10.8 77 2.1 WNW 20 30 11 16 1014.2 1014.0 0.0
20/05:30am 14.7 11.2 10.3 75 2.3 WSW 19 26 10 14 1014.2 1014.0 0.0
20/05:00am 14.8 11.0 9.8 72 2.6 W 20 24 11 13 1014.3 1014.1 0.0
20/04:30am 15.4 11.5 9.3 67 3.2 WSW 20 28 11 15 1014.4 1014.2 0.0
20/04:00am 15.5 11.9 8.3 62 3.6 W 17 22 9 12 1014.4 1014.2 0.0
20/03:30am 15.3 11.6 7.8 61 3.8 W 17 24 9 13 1014.4 1014.2 0.0
20/03:00am 15.2 10.3 6.7 57 4.2 WSW 22 30 12 16 1014.7 1014.5 0.0
20/02:30am 15.2 11.1 7.7 61 3.7 W 19 24 10 13 1014.9 1014.7 0.0
20/02:00am 15.2 10.7 7.0 58 4.0 WSW 20 32 11 17 1015.3 1015.1 0.0
20/01:30am 15.2 11.0 8.4 64 3.4 WSW 20 28 11 15 1015.5 1015.3 0.0
20/01:00am 15.2 11.1 8.0 62 3.6 W 19 32 10 17 1015.5 1015.3 0.0
20/12:30am 15.0 11.2 8.9 67 3.1 W 19 24 10 13 1015.5 1015.3 0.0
20/12:00am 14.8 11.6 8.5 66 3.2 W 15 24 8 13 1015.6 1015.4 0.0
 
Date/Time
EDT
Temp
°C
App
Temp
°C
Dew
Point
°C
Rel
Hum
%
Delta-T
°C
Wind Press
QNH
hPa
Press
MSL
hPa
Rain since
9am
mm
Dir  Spd
km/h
Gust
km/h
Spd
kts
Gust
kts
19/11:30pm 13.6 10.2 7.6 67 3.0 WSW 15 20 8 11 1015.9 1015.7 0.0
19/11:00pm 14.6 10.6 8.3 66 3.2 WSW 19 26 10 14 1016.0 1015.8 0.0
19/10:30pm 13.9 10.2 8.1 68 2.9 WSW 17 20 9 11 1015.9 1015.7 0.0
19/10:00pm 14.6 11.1 8.8 68 2.9 WSW 17 20 9 11 1015.7 1015.5 0.0
19/09:30pm 14.9 11.8 8.8 67 3.1 W 15 19 8 10 1015.3 1015.1 0.0
19/09:00pm 14.1 11.6 8.1 67 3.0 W 11 17 6 9 1015.2 1015.0 0.0
19/08:30pm 14.3 12.1 8.0 66 3.1 W 9 13 5 7 1015.3 1015.1 0.0
19/08:00pm 14.8 11.3 7.4 61 3.7 W 15 22 8 12 1015.1 1014.9 0.0
19/07:30pm 16.1 12.2 7.3 56 4.4 WSW 17 24 9 13 1014.8 1014.6 0.0
19/07:00pm 17.0 12.8 7.6 54 4.7 W 19 28 10 15 1014.7 1014.5 0.0
19/06:30pm 17.5 12.8 7.8 53 4.9 WSW 22 33 12 18 1014.7 1014.5 0.0
19/06:00pm 17.6 12.8 8.7 56 4.6 WSW 24 32 13 17 1014.7 1014.5 0.0
19/05:30pm 18.3 13.0 8.6 53 5.0 WSW 26 33 14 18 1014.6 1014.4 0.0
19/05:00pm 17.6 12.2 7.9 53 4.9 WSW 26 35 14 19 1014.4 1014.2 0.0
19/04:30pm 17.2 13.0 8.1 55 4.6 W 20 28 11 15 1014.5 1014.3 0.0
19/04:00pm 19.0 14.1 8.6 51 5.4 WSW 24 33 13 18 1014.5 1014.3 0.0
19/03:30pm 17.1 12.3 7.2 52 5.0 W 22 33 12 18 1014.7 1014.5 0.0
19/03:00pm 17.9 13.3 8.2 53 5.0 WSW 22 32 12 17 1014.8 1014.6 0.0
19/02:30pm 18.6 14.0 8.3 51 5.3 W 22 33 12 18 1014.8 1014.6 0.0
19/02:00pm 19.2 14.7 7.0 45 6.2 W 20 33 11 18 1014.7 1014.5 0.0
19/01:30pm 18.8 13.6 5.3 41 6.6 WSW 22 33 12 18 1014.6 1014.4 0.0
19/01:00pm 18.7 13.0 6.5 45 6.1 WSW 26 35 14 19 1014.8 1014.6 0.0
19/12:30pm 17.9 12.8 7.6 51 5.2 WSW 24 37 13 20 1014.9 1014.7 0.0
19/12:00pm 17.6 13.8 7.6 52 5.1 SW 17 24 9 13 1014.9 1014.7 0.0
19/11:30am 17.4 12.7 6.0 47 5.6 SW 20 35 11 19 1014.6 1014.4 0.0
19/11:00am 17.0 12.3 5.0 45 5.7 SW 19 32 10 17 1014.4 1014.2 0.0
19/10:30am 17.0 12.1 5.0 45 5.7 SW 20 30 11 16 1014.2 1014.0 0.0
19/10:00am 15.3 10.6 7.6 60 3.8 WSW 22 30 12 16 1014.0 1013.8 0.0
19/09:30am 15.6 11.7 8.6 63 3.6 SSW 19 26 10 14 1013.9 1013.7 0.0
19/09:00am 14.9 11.0 9.3 69 2.9 SW 20 32 11 17 1013.5 1013.3 0.0
19/08:30am 14.7 10.9 9.1 69 2.9 WSW 19 28 10 15 1013.0 1012.8 0.0
19/08:00am 14.2 10.8 7.5 64 3.3 WSW 15 19 8 10 1012.8 1012.6 0.0
19/07:30am 13.7 10.2 7.2 65 3.2 WSW 15 20 8 11 1012.6 1012.4 0.0
19/07:00am 13.9 9.8 7.7 66 3.1 SW 19 30 10 16 1012.2 1012.1 0.0
19/06:30am 13.8 9.4 7.6 66 3.1 WSW 20 28 11 15 1012.0 1011.9 0.0
19/06:00am 13.7 8.8 6.8 63 3.4 WSW 22 30 12 16 1011.9 1011.8 0.0
19/05:30am 14.3 9.8 7.1 62 3.5 WSW 20 28 11 15 1011.8 1011.7 0.0
19/05:00am 14.4 10.2 8.4 67 3.0 WSW 20 30 11 16 1011.7 1011.6 0.0
19/04:30am 13.7 9.5 7.5 66 3.1 WSW 19 28 10 15 1011.8 1011.7 0.0
19/04:00am 14.2 9.7 8.4 68 2.9 W 22 30 12 16 1011.7 1011.6 0.0
19/03:30am 13.7 9.6 7.9 68 2.9 W 19 28 10 15 1011.8 1011.7 0.0
19/03:00am 13.9 9.7 8.1 68 2.9 WSW 20 28 11 15 1011.9 1011.8 0.0
19/02:30am 14.5 10.5 8.9 69 2.9 WSW 20 30 11 16 1012.0 1011.9 0.0
19/02:00am 13.9 9.3 8.3 69 2.8 WSW 22 30 12 16 1012.4 1012.2 0.0
19/01:30am 14.4 10.9 8.8 69 2.8 WSW 17 32 9 17 1012.4 1012.2 0.0
19/01:00am 14.4 11.2 8.6 68 2.9 WSW 15 20 8 11 1012.4 1012.2 0.0
19/12:30am 14.0 11.2 8.4 69 2.8 WSW 13 20 7 11 1012.2 1012.1 0.0
19/12:00am 13.3 10.3 7.7 69 2.8 WSW 13 20 7 11 1012.2 1012.1 0.0
 
Date/Time
EDT
Temp
°C
App
Temp
°C
Dew
Point
°C
Rel
Hum
%
Delta-T
°C
Wind Press
QNH
hPa
Press
MSL
hPa
Rain since
9am
mm
Dir  Spd
km/h
Gust
km/h
Spd
kts
Gust
kts
18/11:30pm 13.5 10.2 7.9 69 2.8 WSW 15 20 8 11 1012.1 1012.0 0.0
18/11:00pm 14.6 11.0 8.5 67 3.1 WSW 17 24 9 13 1012.2 1012.1 0.0
18/10:30pm 14.5 10.9 8.2 66 3.2 WSW 17 28 9 15 1012.1 1012.0 0.0
18/10:00pm 14.1 10.0 8.5 69 2.8 WSW 20 28 11 15 1011.9 1011.8 0.0
18/09:30pm 14.3 10.0 7.8 65 3.2 WSW 20 28 11 15 1011.8 1011.7 0.0
18/09:00pm 15.0 11.2 8.9 67 3.1 WSW 19 30 10 16 1011.5 1011.4 0.0

Other formats

Comma delimited format used in spreadsheet applications
http://www.bom.gov.au/fwo/IDV60801/IDV60801.94828.axf

JavaScript Object Notation format (JSON) in row-major order
http://www.bom.gov.au/fwo/IDV60801/IDV60801.94828.json

Data quality

Most of these data are generated automatically and are frequently updated. Quality checks on data are not normally performed. It is possible for incorrect values to appear. Refer to information at About Latest Weather Observations and please check the disclaimer before using these data.